Time;durP1;ratioP1;P1;durP2;ratioP2;P2;SDS_P1;SDS_P2;PMS_P1;PMS_P2;Temp;Humidity;BMP_temperature;BMP_pressure;BME280_temperature;BME280_humidity;BME280_pressure;Samples;Min_cycle;Max_cycle;Signal;HPM_P1;HPM_P2
2023/07/31 00:01:15;;;;;;;4.65;1.52;;;;;;;;;;4975352;28;20038;-70
2023/07/31 00:03:40;;;;;;;5.60;1.42;;;;;;;;;;4975373;28;20054;-68
2023/07/31 00:06:05;;;;;;;2.70;1.40;;;;;;;;;;4975436;28;20118;-70
2023/07/31 00:08:31;;;;;;;4.30;1.58;;;;;;;;;;4975231;28;20027;-69
2023/07/31 00:10:56;;;;;;;4.13;1.55;;;;;;;;;;4974948;28;20188;-70
2023/07/31 00:13:22;;;;;;;3.13;1.45;;;;;;;;;;4975323;28;20038;-70
2023/07/31 00:15:47;;;;;;;5.70;1.45;;;;;;;;;;4975055;28;20089;-70
2023/07/31 00:18:13;;;;;;;3.92;1.60;;;;;;;;;;4974649;28;20031;-70
2023/07/31 00:20:38;;;;;;;8.02;1.63;;;;;;;;;;4974891;28;20027;-69
2023/07/31 00:23:03;;;;;;;4.40;1.55;;;;;;;;;;4973627;28;20042;-70
2023/07/31 00:25:29;;;;;;;7.80;1.90;;;;;;;;;;4974733;28;20163;-70
2023/07/31 00:27:54;;;;;;;3.78;1.60;;;;;;;;;;4974794;28;20177;-70
2023/07/31 00:30:20;;;;;;;3.75;1.38;;;;;;;;;;4974826;28;20051;-69
2023/07/31 00:32:45;;;;;;;4.82;1.33;;;;;;;;;;4974814;28;20102;-69
2023/07/31 00:35:10;;;;;;;2.88;1.52;;;;;;;;;;4974773;28;20039;-69
2023/07/31 00:37:36;;;;;;;7.63;1.77;;;;;;;;;;4974664;28;20396;-70
2023/07/31 00:40:03;;;;;;;3.65;1.50;;;;;;;;;;4974426;28;20547;-70
2023/07/31 00:42:28;;;;;;;2.78;1.50;;;;;;;;;;4974582;28;20453;-69
2023/07/31 00:44:54;;;;;;;3.05;1.63;;;;;;;;;;4974558;28;20055;-70
2023/07/31 00:47:20;;;;;;;4.85;1.30;;;;;;;;;;4974162;28;20106;-70
2023/07/31 00:49:45;;;;;;;3.78;1.50;;;;;;;;;;4974440;28;20041;-70
2023/07/31 00:52:11;;;;;;;3.75;1.67;;;;;;;;;;4974477;28;20089;-69
2023/07/31 00:54:37;;;;;;;4.95;1.58;;;;;;;;;;4974375;28;20027;-70
2023/07/31 00:57:02;;;;;;;7.70;1.85;;;;;;;;;;4974322;28;20023;-70
2023/07/31 00:59:28;;;;;;;5.82;1.75;;;;;;;;;;4974375;28;20149;-71
2023/07/31 01:01:54;;;;;;;6.13;2.58;;;;;;;;;;4974265;28;20086;-70
2023/07/31 01:04:19;;;;;;;2.85;1.40;;;;;;;;;;4974264;28;20034;-70
2023/07/31 01:06:57;;;;;;;5.20;1.73;;;;;;;;;;4974214;28;20037;-70
2023/07/31 01:09:44;;;;;;;6.80;2.10;;;;;;;;;;4974013;28;20030;-71
2023/07/31 01:12:14;;;;;;;4.28;1.67;;;;;;;;;;4974214;28;20157;-70
2023/07/31 01:14:40;;;;;;;2.72;1.50;;;;;;;;;;4974180;28;20026;-70
2023/07/31 01:17:05;;;;;;;5.22;1.77;;;;;;;;;;4974068;28;20472;-69
2023/07/31 01:19:31;;;;;;;11.07;1.65;;;;;;;;;;4974026;28;20023;-70
2023/07/31 01:22:05;;;;;;;5.28;1.60;;;;;;;;;;4973804;28;20754;-70
2023/07/31 01:24:39;;;;;;;4.05;1.60;;;;;;;;;;4974002;28;20023;-70
2023/07/31 01:27:14;;;;;;;3.65;1.65;;;;;;;;;;4973981;28;20675;-70
2023/07/31 01:30:10;;;;;;;5.72;1.63;;;;;;;;;;4973294;28;20030;-70
2023/07/31 01:32:38;;;;;;;3.78;1.70;;;;;;;;;;4974257;28;20364;-70
2023/07/31 01:35:04;;;;;;;4.63;1.52;;;;;;;;;;4973905;28;20029;-70
2023/07/31 01:37:30;;;;;;;5.18;1.50;;;;;;;;;;4973640;28;20023;-69
2023/07/31 01:39:55;;;;;;;4.18;1.70;;;;;;;;;;4973873;28;20027;-70
2023/07/31 01:42:21;;;;;;;4.63;1.73;;;;;;;;;;4973773;28;20432;-70
2023/07/31 01:44:46;;;;;;;6.30;1.33;;;;;;;;;;4972657;28;20097;-70
2023/07/31 01:47:12;;;;;;;2.80;1.35;;;;;;;;;;4973363;28;20047;-70
2023/07/31 01:49:37;;;;;;;4.43;1.33;;;;;;;;;;4973821;28;20031;-70
2023/07/31 01:52:03;;;;;;;5.93;1.42;;;;;;;;;;4973682;28;20098;-70
2023/07/31 01:54:28;;;;;;;3.55;1.60;;;;;;;;;;4973777;28;20468;-70
2023/07/31 01:56:54;;;;;;;8.02;1.95;;;;;;;;;;4973685;28;20461;-70
2023/07/31 01:59:19;;;;;;;4.60;1.60;;;;;;;;;;4973716;28;20443;-70
2023/07/31 02:01:44;;;;;;;3.67;1.55;;;;;;;;;;4973578;28;20523;-71
2023/07/31 02:04:10;;;;;;;3.72;1.40;;;;;;;;;;4972448;28;20026;-70
2023/07/31 02:06:36;;;;;;;3.45;1.27;;;;;;;;;;4973436;28;20424;-70
2023/07/31 02:09:01;;;;;;;6.95;1.70;;;;;;;;;;4973639;28;20476;-68
2023/07/31 02:11:27;;;;;;;3.38;1.45;;;;;;;;;;4973738;28;20063;-70
2023/07/31 02:13:52;;;;;;;3.67;1.23;;;;;;;;;;4973608;28;20023;-70
2023/07/31 02:16:18;;;;;;;4.95;1.50;;;;;;;;;;4973480;28;20049;-70
2023/07/31 02:18:43;;;;;;;2.90;1.35;;;;;;;;;;4973529;28;20023;-70
2023/07/31 02:21:08;;;;;;;6.00;1.52;;;;;;;;;;4973183;28;20038;-70
2023/07/31 02:23:34;;;;;;;5.22;1.50;;;;;;;;;;4973385;28;20063;-70
2023/07/31 02:25:59;;;;;;;3.88;1.52;;;;;;;;;;4973500;28;20069;-70
2023/07/31 02:28:25;;;;;;;2.95;1.50;;;;;;;;;;4973435;28;20046;-69
2023/07/31 02:30:52;;;;;;;4.22;1.42;;;;;;;;;;4973436;28;20436;-69
2023/07/31 02:33:17;;;;;;;3.00;1.42;;;;;;;;;;4973497;28;20039;-71
2023/07/31 02:35:43;;;;;;;3.97;1.70;;;;;;;;;;4973204;28;20081;-70
2023/07/31 02:38:08;;;;;;;4.10;1.80;;;;;;;;;;4973233;28;20026;-70
2023/07/31 02:40:34;;;;;;;9.00;1.67;;;;;;;;;;4974441;28;20029;-68
2023/07/31 02:42:59;;;;;;;6.13;1.77;;;;;;;;;;4976727;28;20480;-69
2023/07/31 02:45:24;;;;;;;2.92;1.38;;;;;;;;;;4976541;28;20030;-70
2023/07/31 02:47:50;;;;;;;3.00;1.50;;;;;;;;;;4976315;28;20042;-70
2023/07/31 02:50:15;;;;;;;3.95;1.58;;;;;;;;;;4976415;28;20033;-69
2023/07/31 02:52:41;;;;;;;4.20;1.40;;;;;;;;;;4976747;28;20357;-70
2023/07/31 02:55:07;;;;;;;4.35;1.90;;;;;;;;;;4976683;28;20034;-70
2023/07/31 02:57:32;;;;;;;2.95;1.52;;;;;;;;;;4976233;28;20019;-70
2023/07/31 02:59:57;;;;;;;6.57;1.60;;;;;;;;;;4976543;28;20062;-69
2023/07/31 03:02:23;;;;;;;5.40;1.67;;;;;;;;;;4976248;28;20027;-70
2023/07/31 03:04:48;;;;;;;4.53;1.83;;;;;;;;;;4976168;28;20031;-70
2023/07/31 03:07:14;;;;;;;2.78;1.50;;;;;;;;;;4976410;28;20073;-70
2023/07/31 03:09:39;;;;;;;4.13;1.60;;;;;;;;;;4976315;28;20026;-70
2023/07/31 03:12:05;;;;;;;3.50;1.70;;;;;;;;;;4976456;28;20034;-70
2023/07/31 03:14:31;;;;;;;3.00;1.40;;;;;;;;;;4976252;28;20456;-70
2023/07/31 03:16:56;;;;;;;3.28;1.67;;;;;;;;;;4975998;28;20030;-70
2023/07/31 03:19:22;;;;;;;5.28;1.50;;;;;;;;;;4975957;28;20027;-69
2023/07/31 03:21:47;;;;;;;5.22;1.70;;;;;;;;;;4976138;28;20489;-70
2023/07/31 03:24:13;;;;;;;2.80;1.77;;;;;;;;;;4976113;28;20113;-70
2023/07/31 03:26:41;;;;;;;4.55;1.90;;;;;;;;;;4976053;28;20025;-69
2023/07/31 03:29:07;;;;;;;7.18;2.00;;;;;;;;;;4975930;28;20429;-68
2023/07/31 03:31:32;;;;;;;5.70;2.10;;;;;;;;;;4975973;28;20106;-70
2023/07/31 03:33:57;;;;;;;5.03;1.70;;;;;;;;;;4975674;28;20027;-69
2023/07/31 03:36:23;;;;;;;4.70;1.48;;;;;;;;;;4975717;28;20370;-70
2023/07/31 03:38:48;;;;;;;4.70;1.70;;;;;;;;;;4975693;28;20085;-70
2023/07/31 03:41:14;;;;;;;10.80;2.25;;;;;;;;;;4975639;28;20078;-70
2023/07/31 03:43:39;;;;;;;4.38;1.90;;;;;;;;;;4975666;28;20029;-67
2023/07/31 03:46:04;;;;;;;12.85;2.30;;;;;;;;;;4975689;28;20031;-70
2023/07/31 03:48:30;;;;;;;5.10;1.83;;;;;;;;;;4975027;28;20043;-69
2023/07/31 03:50:55;;;;;;;6.93;2.00;;;;;;;;;;4975496;28;20035;-70
2023/07/31 03:53:21;;;;;;;3.55;1.70;;;;;;;;;;4974784;28;20031;-69
2023/07/31 03:55:46;;;;;;;4.43;1.55;;;;;;;;;;4975425;28;20030;-69
2023/07/31 03:58:12;;;;;;;7.35;3.10;;;;;;;;;;4975200;28;20480;-70
2023/07/31 04:00:37;;;;;;;4.15;1.80;;;;;;;;;;4975489;28;20031;-70
2023/07/31 04:03:03;;;;;;;4.47;1.85;;;;;;;;;;4974932;28;20030;-67
2023/07/31 04:05:31;;;;;;;3.83;1.73;;;;;;;;;;4990135;28;20043;-71
2023/07/31 04:07:56;;;;;;;5.35;1.80;;;;;;;;;;4975317;28;20027;-70
2023/07/31 04:10:22;;;;;;;5.38;1.90;;;;;;;;;;4974908;28;20031;-70
2023/07/31 04:12:48;;;;;;;6.50;2.30;;;;;;;;;;4975171;28;20027;-70
2023/07/31 04:15:13;;;;;;;5.32;1.90;;;;;;;;;;4975180;28;20551;-69
2023/07/31 04:17:39;;;;;;;3.97;1.63;;;;;;;;;;4974805;28;20128;-68
2023/07/31 04:20:05;;;;;;;6.07;1.80;;;;;;;;;;4974989;28;20065;-70
2023/07/31 04:22:30;;;;;;;4.95;1.88;;;;;;;;;;4974932;28;20042;-70
2023/07/31 04:24:56;;;;;;;7.35;2.10;;;;;;;;;;4974830;28;20027;-70
2023/07/31 04:27:21;;;;;;;8.05;2.03;;;;;;;;;;4974641;28;20461;-69
2023/07/31 04:29:47;;;;;;;6.90;2.58;;;;;;;;;;4974863;28;20131;-69
2023/07/31 04:32:13;;;;;;;7.18;2.20;;;;;;;;;;4974585;28;20034;-69
2023/07/31 04:34:38;;;;;;;4.55;1.98;;;;;;;;;;4974830;28;20380;-70
2023/07/31 04:37:04;;;;;;;5.40;1.63;;;;;;;;;;4974696;28;20027;-70
2023/07/31 04:39:29;;;;;;;4.15;1.55;;;;;;;;;;4974472;28;20019;-71
2023/07/31 04:41:55;;;;;;;3.30;1.80;;;;;;;;;;4974584;28;20487;-70
2023/07/31 04:44:20;;;;;;;3.03;1.63;;;;;;;;;;4974633;28;20269;-69
2023/07/31 04:46:45;;;;;;;4.20;1.65;;;;;;;;;;4974020;28;20034;-70
2023/07/31 04:49:12;;;;;;;5.88;1.65;;;;;;;;;;4974542;28;20042;-70
2023/07/31 04:51:37;;;;;;;5.30;1.85;;;;;;;;;;4974490;28;20035;-67
2023/07/31 04:54:03;;;;;;;6.30;1.58;;;;;;;;;;4974534;28;20030;-70
2023/07/31 04:56:28;;;;;;;6.45;1.70;;;;;;;;;;4974253;28;20022;-70
2023/07/31 04:58:54;;;;;;;5.80;1.60;;;;;;;;;;4974149;28;20050;-70
2023/07/31 05:01:20;;;;;;;5.88;1.75;;;;;;;;;;4974008;28;20543;-70
2023/07/31 05:03:45;;;;;;;6.78;1.67;;;;;;;;;;4974375;28;20034;-70
2023/07/31 05:06:12;;;;;;;7.47;1.70;;;;;;;;;;4974064;28;20043;-71
2023/07/31 05:08:37;;;;;;;11.00;2.00;;;;;;;;;;4974334;28;20043;-70
2023/07/31 05:11:03;;;;;;;7.40;1.45;;;;;;;;;;4974187;28;20444;-70
2023/07/31 05:13:28;;;;;;;5.15;1.60;;;;;;;;;;4974178;28;20452;-70
2023/07/31 05:15:53;;;;;;;5.32;1.50;;;;;;;;;;4973979;28;20030;-71
2023/07/31 05:18:19;;;;;;;5.80;1.45;;;;;;;;;;4974020;28;20027;-69
2023/07/31 05:20:44;;;;;;;6.35;1.67;;;;;;;;;;4973898;28;20039;-70
2023/07/31 05:23:10;;;;;;;6.60;1.20;;;;;;;;;;4973866;28;20056;-70
2023/07/31 05:25:35;;;;;;;3.78;1.30;;;;;;;;;;4973913;28;20073;-70
2023/07/31 05:28:01;;;;;;;3.58;1.55;;;;;;;;;;4973775;28;20022;-70
2023/07/31 05:30:26;;;;;;;9.25;2.00;;;;;;;;;;4974056;28;20023;-69
2023/07/31 05:32:52;;;;;;;6.18;1.70;;;;;;;;;;4973793;28;20034;-70
2023/07/31 05:35:17;;;;;;;7.25;1.35;;;;;;;;;;4973840;28;20405;-70
2023/07/31 05:37:43;;;;;;;4.40;1.55;;;;;;;;;;4973790;28;20468;-70
2023/07/31 05:40:08;;;;;;;5.15;1.55;;;;;;;;;;4973687;28;20416;-70
2023/07/31 05:42:35;;;;;;;9.43;1.85;;;;;;;;;;4973438;28;20031;-70
2023/07/31 05:45:00;;;;;;;3.70;1.50;;;;;;;;;;4973661;28;20059;-70
2023/07/31 05:47:26;;;;;;;7.32;1.60;;;;;;;;;;4973293;28;20539;-68
2023/07/31 05:49:52;;;;;;;6.45;1.60;;;;;;;;;;4973677;28;20629;-68
2023/07/31 05:52:19;;;;;;;8.05;1.80;;;;;;;;;;4973593;28;20035;-69
2023/07/31 05:54:45;;;;;;;5.53;1.67;;;;;;;;;;4973717;28;20031;-70
2023/07/31 05:57:11;;;;;;;5.10;1.73;;;;;;;;;;4973280;28;20111;-70
2023/07/31 05:59:37;;;;;;;3.88;1.70;;;;;;;;;;4973627;28;20109;-70
2023/07/31 06:02:02;;;;;;;5.50;1.60;;;;;;;;;;4973744;28;20372;-71
2023/07/31 06:04:28;;;;;;;5.60;1.67;;;;;;;;;;4972319;28;20049;-70
2023/07/31 06:06:53;;;;;;;2.63;1.35;;;;;;;;;;4973558;28;20066;-68
2023/07/31 06:09:20;;;;;;;3.88;1.42;;;;;;;;;;4973580;28;20353;-70
2023/07/31 06:11:45;;;;;;;6.43;1.83;;;;;;;;;;4973354;28;20027;-69
2023/07/31 06:14:11;;;;;;;5.70;1.52;;;;;;;;;;4973443;28;20167;-70
2023/07/31 06:16:36;;;;;;;4.15;1.70;;;;;;;;;;4976179;28;20089;-68
2023/07/31 06:19:02;;;;;;;3.30;1.30;;;;;;;;;;4977221;28;20473;-69
2023/07/31 06:21:27;;;;;;;6.53;1.67;;;;;;;;;;4977099;28;20050;-70
2023/07/31 06:23:53;;;;;;;4.90;1.42;;;;;;;;;;4977200;28;20391;-70
2023/07/31 06:26:18;;;;;;;5.28;1.45;;;;;;;;;;4976823;28;20445;-68
2023/07/31 06:28:44;;;;;;;6.20;1.70;;;;;;;;;;4977128;28;20037;-70
2023/07/31 06:31:09;;;;;;;4.55;1.20;;;;;;;;;;4976838;28;20023;-69
2023/07/31 06:33:35;;;;;;;5.40;1.75;;;;;;;;;;4976974;28;20039;-68
2023/07/31 06:36:00;;;;;;;7.00;1.60;;;;;;;;;;4976851;28;20034;-71
2023/07/31 06:38:26;;;;;;;3.42;1.50;;;;;;;;;;4978045;28;20085;-67
2023/07/31 06:40:52;;;;;;;4.82;1.52;;;;;;;;;;4975824;28;20031;-69
2023/07/31 06:43:17;;;;;;;6.35;1.77;;;;;;;;;;4976406;28;20082;-70
2023/07/31 06:45:43;;;;;;;4.28;1.58;;;;;;;;;;4976520;28;20034;-66
2023/07/31 06:48:09;;;;;;;5.47;2.45;;;;;;;;;;4975875;28;20045;-68
2023/07/31 06:50:34;;;;;;;6.60;1.85;;;;;;;;;;4976373;28;20031;-70
2023/07/31 06:52:59;;;;;;;5.72;1.50;;;;;;;;;;4976246;28;20251;-70
2023/07/31 06:55:26;;;;;;;4.43;1.60;;;;;;;;;;4975844;28;20110;-67
2023/07/31 06:57:53;;;;;;;6.30;2.10;;;;;;;;;;4976089;28;20112;-68
2023/07/31 07:00:20;;;;;;;3.85;1.80;;;;;;;;;;4976201;28;20031;-67
2023/07/31 07:02:49;;;;;;;4.32;1.65;;;;;;;;;;4975955;28;20033;-69
2023/07/31 07:05:18;;;;;;;7.70;1.88;;;;;;;;;;4975914;28;20206;-68
2023/07/31 07:07:44;;;;;;;4.18;1.50;;;;;;;;;;4974813;28;20019;-70
2023/07/31 07:10:10;;;;;;;2.72;1.25;;;;;;;;;;4975969;28;20106;-67
2023/07/31 07:12:35;;;;;;;5.82;1.58;;;;;;;;;;4975995;28;20544;-69
2023/07/31 07:15:02;;;;;;;3.20;1.38;;;;;;;;;;4975661;28;20027;-70
2023/07/31 07:17:31;;;;;;;5.13;1.60;;;;;;;;;;4975968;28;20058;-68
2023/07/31 07:19:57;;;;;;;10.60;1.58;;;;;;;;;;4975809;28;20440;-67
2023/07/31 07:22:22;;;;;;;5.13;1.75;;;;;;;;;;4975807;28;20047;-68
2023/07/31 07:24:48;;;;;;;2.85;1.50;;;;;;;;;;4974151;28;20093;-68
2023/07/31 07:27:13;;;;;;;3.25;1.33;;;;;;;;;;4974606;28;20029;-67
2023/07/31 07:29:39;;;;;;;3.55;1.40;;;;;;;;;;4975716;28;20027;-70
2023/07/31 07:32:05;;;;;;;5.15;1.70;;;;;;;;;;4975600;28;20034;-69
2023/07/31 07:34:30;;;;;;;3.67;1.30;;;;;;;;;;4975450;28;20023;-68
2023/07/31 07:36:56;;;;;;;3.30;1.40;;;;;;;;;;4974243;28;20089;-67
2023/07/31 07:39:21;;;;;;;5.20;1.50;;;;;;;;;;4975279;28;20023;-67
2023/07/31 07:41:47;;;;;;;2.72;1.40;;;;;;;;;;4974224;28;20034;-67
2023/07/31 07:44:13;;;;;;;2.55;1.23;;;;;;;;;;4975445;28;20035;-67
2023/07/31 07:46:39;;;;;;;3.40;1.50;;;;;;;;;;4975049;28;20039;-67
2023/07/31 07:49:04;;;;;;;5.05;1.58;;;;;;;;;;4975028;28;20046;-66
2023/07/31 07:51:31;;;;;;;3.40;1.40;;;;;;;;;;4975380;28;20019;-67
2023/07/31 07:53:57;;;;;;;3.63;1.40;;;;;;;;;;4974951;28;20027;-67
2023/07/31 07:56:23;;;;;;;3.90;1.10;;;;;;;;;;4975186;28;20023;-67
2023/07/31 07:58:50;;;;;;;5.40;1.75;;;;;;;;;;4975033;28;20432;-66
2023/07/31 08:01:15;;;;;;;3.20;1.40;;;;;;;;;;4975117;28;20440;-67
2023/07/31 08:03:41;;;;;;;4.40;1.63;;;;;;;;;;4974934;28;20035;-67
2023/07/31 08:06:09;;;;;;;4.40;1.50;;;;;;;;;;4974868;28;20050;-67
2023/07/31 08:08:34;;;;;;;2.72;1.30;;;;;;;;;;4974652;28;20495;-66
2023/07/31 08:11:00;;;;;;;3.75;1.60;;;;;;;;;;4974939;28;20106;-67
2023/07/31 08:13:25;;;;;;;5.55;1.80;;;;;;;;;;4974974;28;20018;-66
2023/07/31 08:15:50;;;;;;;5.38;1.35;;;;;;;;;;4974892;28;20109;-67
2023/07/31 08:18:17;;;;;;;2.25;1.20;;;;;;;;;;4974642;28;20027;-67
2023/07/31 08:20:42;;;;;;;4.22;1.63;;;;;;;;;;4974515;28;20520;-67
2023/07/31 08:23:08;;;;;;;4.00;1.27;;;;;;;;;;4974325;28;20126;-67
2023/07/31 08:25:36;;;;;;;3.35;1.40;;;;;;;;;;4974467;28;20026;-66
2023/07/31 08:28:03;;;;;;;2.67;1.05;;;;;;;;;;4974630;28;20037;-67
2023/07/31 08:30:28;;;;;;;7.55;1.50;;;;;;;;;;4974583;28;20050;-67
2023/07/31 08:32:54;;;;;;;3.85;1.35;;;;;;;;;;4974411;28;20031;-68
2023/07/31 08:35:19;;;;;;;2.85;1.10;;;;;;;;;;4973379;28;20031;-67
2023/07/31 08:37:44;;;;;;;2.50;1.42;;;;;;;;;;4974033;28;20034;-66
2023/07/31 08:40:10;;;;;;;3.20;1.50;;;;;;;;;;4974403;28;20121;-66
2023/07/31 08:42:46;;;;;;;3.30;1.85;;;;;;;;;;4974222;28;20034;-66
2023/07/31 08:45:18;;;;;;;3.72;1.35;;;;;;;;;;4974358;28;20035;-67
2023/07/31 08:47:49;;;;;;;4.63;1.40;;;;;;;;;;4973782;28;20043;-67
2023/07/31 08:50:16;;;;;;;5.32;1.40;;;;;;;;;;4974270;28;20027;-67
2023/07/31 08:52:42;;;;;;;5.25;1.40;;;;;;;;;;4974023;28;20027;-67
2023/07/31 08:55:08;;;;;;;4.72;1.50;;;;;;;;;;4972900;28;20578;-67
2023/07/31 08:57:35;;;;;;;6.53;1.60;;;;;;;;;;4974201;28;20499;-67
2023/07/31 09:00:03;;;;;;;4.30;1.35;;;;;;;;;;4974113;28;20027;-65
2023/07/31 09:02:38;;;;;;;8.32;1.73;;;;;;;;;;4973950;28;20041;-65
2023/07/31 09:05:05;;;;;;;3.90;1.60;;;;;;;;;;4973903;28;20093;-65
2023/07/31 09:07:32;;;;;;;4.50;1.55;;;;;;;;;;4973788;28;20041;-65
2023/07/31 09:09:57;;;;;;;5.47;1.33;;;;;;;;;;4974023;28;20030;-66
2023/07/31 09:12:25;;;;;;;4.68;1.33;;;;;;;;;;4972700;28;20041;-65
2023/07/31 09:14:50;;;;;;;4.40;1.23;;;;;;;;;;4973838;28;20063;-65
2023/07/31 09:17:18;;;;;;;13.48;1.80;;;;;;;;;;4973971;28;20054;-66
2023/07/31 09:19:43;;;;;;;4.97;1.60;;;;;;;;;;4973734;28;20023;-66
2023/07/31 09:22:08;;;;;;;4.95;1.63;;;;;;;;;;4992351;28;20077;-65
2023/07/31 09:24:35;;;;;;;6.80;1.58;;;;;;;;;;4993028;28;20023;-65
2023/07/31 09:27:02;;;;;;;5.88;1.60;;;;;;;;;;4985445;28;20030;-66
2023/07/31 09:29:29;;;;;;;8.82;1.65;;;;;;;;;;4973847;28;20023;-66
2023/07/31 09:31:55;;;;;;;4.50;1.73;;;;;;;;;;4973706;28;20038;-67
2023/07/31 09:34:29;;;;;;;6.18;1.60;;;;;;;;;;4973643;28;20027;-66
2023/07/31 09:36:54;;;;;;;6.05;1.70;;;;;;;;;;4971917;28;20389;-66
2023/07/31 09:39:20;;;;;;;4.07;1.58;;;;;;;;;;4973617;28;20089;-66
2023/07/31 09:41:55;;;;;;;8.15;1.80;;;;;;;;;;4973443;28;20030;-66
2023/07/31 09:44:21;;;;;;;4.97;1.50;;;;;;;;;;4973605;28;20027;-66
2023/07/31 09:46:46;;;;;;;4.13;1.70;;;;;;;;;;4972997;28;20023;-67
2023/07/31 09:49:14;;;;;;;5.20;1.92;;;;;;;;;;4973309;28;20055;-67
2023/07/31 09:51:41;;;;;;;4.68;1.50;;;;;;;;;;4976482;28;20528;-66
2023/07/31 09:54:14;;;;;;;3.95;1.35;;;;;;;;;;4977547;28;20054;-67
2023/07/31 09:56:49;;;;;;;3.38;1.40;;;;;;;;;;4977186;28;20030;-66
2023/07/31 09:59:16;;;;;;;5.05;1.60;;;;;;;;;;4958203;28;20034;-67
2023/07/31 10:01:43;;;;;;;3.42;1.33;;;;;;;;;;4957941;28;20031;-65
2023/07/31 10:04:10;;;;;;;5.82;1.63;;;;;;;;;;4957514;29;20420;-66
2023/07/31 10:06:37;;;;;;;3.38;1.30;;;;;;;;;;4957744;29;20385;-67
2023/07/31 10:09:06;;;;;;;3.00;1.30;;;;;;;;;;4957829;29;20035;-67
2023/07/31 10:11:36;;;;;;;5.05;1.60;;;;;;;;;;4957826;29;20027;-67
2023/07/31 10:14:03;;;;;;;4.30;1.35;;;;;;;;;;4957886;29;20032;-66
2023/07/31 10:16:29;;;;;;;5.88;1.35;;;;;;;;;;4957666;28;20035;-66
2023/07/31 10:18:55;;;;;;;2.78;1.10;;;;;;;;;;4957386;29;20469;-67
2023/07/31 10:21:20;;;;;;;4.00;1.30;;;;;;;;;;4974730;28;20034;-69
2023/07/31 10:23:47;;;;;;;5.63;1.20;;;;;;;;;;4976909;28;20035;-67
2023/07/31 10:26:14;;;;;;;3.70;1.30;;;;;;;;;;4976757;28;20030;-66
2023/07/31 10:28:40;;;;;;;7.03;1.30;;;;;;;;;;4976704;28;20495;-67
2023/07/31 10:31:06;;;;;;;3.25;1.50;;;;;;;;;;4976715;28;20109;-64
2023/07/31 10:33:32;;;;;;;7.53;1.40;;;;;;;;;;4976401;28;20081;-66
2023/07/31 10:36:33;;;;;;;3.15;1.40;;;;;;;;;;4976799;28;20033;-64
2023/07/31 10:38:58;;;;;;;3.13;1.45;;;;;;;;;;4916830;29;20123;-64
2023/07/31 10:41:31;;;;;;;2.28;1.50;;;;;;;;;;4917006;29;20036;-65
2023/07/31 10:44:07;;;;;;;3.70;1.60;;;;;;;;;;4917107;29;20036;-64
2023/07/31 10:46:32;;;;;;;2.65;1.50;;;;;;;;;;4916560;29;20036;-64
2023/07/31 10:49:00;;;;;;;3.47;1.30;;;;;;;;;;4916403;29;20055;-66
2023/07/31 10:51:34;;;;;;;3.22;1.30;;;;;;;;;;4917048;29;20028;-63
2023/07/31 10:54:14;;;;;;;4.07;1.15;;;;;;;;;;4916864;29;20088;-65
2023/07/31 10:56:40;;;;;;;3.22;1.30;;;;;;;;;;4916607;29;20043;-65
2023/07/31 10:59:06;;;;;;;3.08;1.40;;;;;;;;;;4916603;29;20148;-63
2023/07/31 11:01:57;;;;;;;2.53;1.13;;;;;;;;;;4900359;29;20072;-67
2023/07/31 11:04:26;;;;;;;4.05;1.33;;;;;;;;;;4912241;29;20043;-69
2023/07/31 11:06:59;;;;;;;3.33;1.30;;;;;;;;;;4916344;29;20044;-70
2023/07/31 11:09:30;;;;;;;4.63;1.15;;;;;;;;;;4916818;29;20043;-69
2023/07/31 11:11:55;;;;;;;3.10;1.10;;;;;;;;;;4919854;29;20155;-68
2023/07/31 11:14:21;;;;;;;10.10;1.48;;;;;;;;;;4956723;28;20024;-69
2023/07/31 11:16:50;;;;;;;6.25;1.80;;;;;;;;;;4956353;28;20433;-68
2023/07/31 11:19:21;;;;;;;4.30;2.05;;;;;;;;;;4956878;28;20062;-67
2023/07/31 11:21:48;;;;;;;5.13;2.05;;;;;;;;;;4975866;28;20027;-69
2023/07/31 11:24:13;;;;;;;3.85;1.90;;;;;;;;;;4975922;28;20023;-66
2023/07/31 11:26:38;;;;;;;5.32;2.30;;;;;;;;;;4975771;28;20113;-67
2023/07/31 11:29:11;;;;;;;3.67;2.45;;;;;;;;;;4975639;28;20030;-66
2023/07/31 11:31:42;;;;;;;5.03;2.60;;;;;;;;;;4975420;28;20027;-67
2023/07/31 11:34:08;;;;;;;5.53;2.85;;;;;;;;;;4975780;28;20027;-67
2023/07/31 11:36:33;;;;;;;5.70;2.35;;;;;;;;;;4975525;28;20388;-67
2023/07/31 11:39:09;;;;;;;3.90;2.13;;;;;;;;;;4975224;28;20023;-67
2023/07/31 11:41:34;;;;;;;3.55;2.40;;;;;;;;;;4975368;28;20073;-68
2023/07/31 11:44:00;;;;;;;6.22;2.53;;;;;;;;;;4975463;28;20030;-68
2023/07/31 11:46:26;;;;;;;5.22;3.17;;;;;;;;;;4975014;28;20026;-67
2023/07/31 11:48:51;;;;;;;4.43;2.42;;;;;;;;;;4974908;28;20138;-69
2023/07/31 11:51:21;;;;;;;3.35;2.53;;;;;;;;;;4975345;28;20018;-69
2023/07/31 11:53:53;;;;;;;3.27;2.40;;;;;;;;;;4975057;28;20034;-67
2023/07/31 11:56:20;;;;;;;3.38;2.30;;;;;;;;;;4975115;28;20034;-68
2023/07/31 11:58:48;;;;;;;2.50;1.90;;;;;;;;;;4974842;28;20088;-67
2023/07/31 12:01:19;;;;;;;3.78;1.70;;;;;;;;;;4974925;28;20031;-67
2023/07/31 12:03:46;;;;;;;2.65;1.60;;;;;;;;;;4974994;28;20146;-68
2023/07/31 12:06:11;;;;;;;2.67;1.67;;;;;;;;;;4974997;28;20030;-67
2023/07/31 12:08:37;;;;;;;3.58;1.73;;;;;;;;;;4974887;28;20030;-67
2023/07/31 12:11:09;;;;;;;3.58;1.90;;;;;;;;;;4974937;28;20031;-70
2023/07/31 12:13:35;;;;;;;6.03;2.05;;;;;;;;;;4974238;28;20027;-67
2023/07/31 12:16:03;;;;;;;2.13;1.33;;;;;;;;;;4974735;28;20031;-67
2023/07/31 12:18:29;;;;;;;2.22;1.42;;;;;;;;;;4974704;28;20109;-67
2023/07/31 12:20:57;;;;;;;2.85;1.50;;;;;;;;;;4974557;28;20039;-70
2023/07/31 12:23:28;;;;;;;5.13;1.90;;;;;;;;;;4974629;28;20029;-67
2023/07/31 12:26:14;;;;;;;2.58;1.40;;;;;;;;;;4974501;28;20042;-65
2023/07/31 12:28:48;;;;;;;2.88;0.95;;;;;;;;;;4974166;28;20031;-67
2023/07/31 12:31:22;;;;;;;2.10;1.10;;;;;;;;;;4974614;28;20035;-69
2023/07/31 12:33:49;;;;;;;5.95;1.30;;;;;;;;;;4974711;28;20038;-70
2023/07/31 12:36:18;;;;;;;1.75;0.63;;;;;;;;;;4974528;28;20033;-69
2023/07/31 12:38:44;;;;;;;1.95;0.77;;;;;;;;;;4974330;28;20067;-68
2023/07/31 12:41:09;;;;;;;1.20;0.80;;;;;;;;;;4974296;28;20062;-70
2023/07/31 12:43:35;;;;;;;2.78;0.90;;;;;;;;;;4974095;28;20030;-69
2023/07/31 12:46:01;;;;;;;1.23;0.80;;;;;;;;;;4974445;28;20388;-69
2023/07/31 12:48:27;;;;;;;0.77;0.70;;;;;;;;;;4973806;28;20047;-69
2023/07/31 12:50:52;;;;;;;1.58;0.80;;;;;;;;;;4974232;28;20492;-68
2023/07/31 12:53:18;;;;;;;1.73;0.93;;;;;;;;;;4974322;28;20037;-68
2023/07/31 12:55:43;;;;;;;0.75;0.70;;;;;;;;;;4974248;28;20090;-68
2023/07/31 12:58:09;;;;;;;1.23;0.70;;;;;;;;;;4973871;28;20023;-70
2023/07/31 13:00:34;;;;;;;1.63;0.80;;;;;;;;;;4974045;28;20033;-69
2023/07/31 13:03:01;;;;;;;3.50;0.65;;;;;;;;;;4973911;28;20416;-69
2023/07/31 13:05:27;;;;;;;1.50;0.90;;;;;;;;;;4974078;28;20030;-70
2023/07/31 13:07:52;;;;;;;1.58;0.90;;;;;;;;;;4974119;28;20377;-70
2023/07/31 13:10:18;;;;;;;1.08;0.90;;;;;;;;;;4974148;28;20035;-70
2023/07/31 13:12:44;;;;;;;2.95;1.15;;;;;;;;;;4973767;28;20085;-69
2023/07/31 13:15:09;;;;;;;3.42;1.30;;;;;;;;;;4973820;28;20082;-69
2023/07/31 13:17:35;;;;;;;4.20;1.55;;;;;;;;;;4973893;28;20030;-69
2023/07/31 13:20:01;;;;;;;3.35;1.30;;;;;;;;;;4973799;28;20027;-70
2023/07/31 13:22:26;;;;;;;3.20;1.90;;;;;;;;;;4973805;28;20031;-68
2023/07/31 13:24:52;;;;;;;2.60;1.67;;;;;;;;;;4973665;28;20027;-71
2023/07/31 13:27:20;;;;;;;2.80;1.65;;;;;;;;;;4973620;28;20520;-70
2023/07/31 13:29:46;;;;;;;4.25;1.65;;;;;;;;;;4973762;28;20166;-69
2023/07/31 13:32:11;;;;;;;3.33;2.00;;;;;;;;;;4973831;28;20534;-71
2023/07/31 13:34:37;;;;;;;4.90;2.17;;;;;;;;;;4973750;28;20535;-67
2023/07/31 13:37:05;;;;;;;3.90;1.98;;;;;;;;;;4973620;28;20030;-67
2023/07/31 13:39:31;;;;;;;3.25;2.10;;;;;;;;;;4973742;28;20022;-67
2023/07/31 13:41:56;;;;;;;3.30;1.80;;;;;;;;;;4973461;28;20041;-70
2023/07/31 13:44:22;;;;;;;4.80;2.10;;;;;;;;;;4973657;28;20061;-69
2023/07/31 13:46:47;;;;;;;3.13;2.03;;;;;;;;;;4973306;28;20030;-67
2023/07/31 13:49:13;;;;;;;2.80;1.80;;;;;;;;;;4973335;28;20018;-67
2023/07/31 13:51:39;;;;;;;5.35;1.92;;;;;;;;;;4973724;28;20031;-70
2023/07/31 13:54:09;;;;;;;5.93;2.03;;;;;;;;;;4973500;28;20047;-71
2023/07/31 13:56:34;;;;;;;6.10;2.35;;;;;;;;;;4973278;28;20027;-71
2023/07/31 13:59:01;;;;;;;6.05;2.03;;;;;;;;;;4973427;28;20026;-70
2023/07/31 14:01:26;;;;;;;3.90;2.00;;;;;;;;;;4973583;28;20382;-71
2023/07/31 14:03:52;;;;;;;9.65;2.50;;;;;;;;;;4973211;28;20033;-71
2023/07/31 14:06:17;;;;;;;4.68;2.25;;;;;;;;;;4973379;28;20113;-70
2023/07/31 14:08:43;;;;;;;5.75;2.22;;;;;;;;;;4973422;28;20027;-70
2023/07/31 14:11:08;;;;;;;6.88;2.20;;;;;;;;;;4973132;28;20063;-70
2023/07/31 14:13:34;;;;;;;2.47;1.85;;;;;;;;;;4973245;28;20029;-70
2023/07/31 14:15:59;;;;;;;3.95;1.90;;;;;;;;;;4973452;28;20427;-66
2023/07/31 14:18:24;;;;;;;4.60;2.47;;;;;;;;;;4973274;28;20027;-68
2023/07/31 14:20:50;;;;;;;5.05;2.25;;;;;;;;;;4972828;28;20127;-68
2023/07/31 14:23:15;;;;;;;5.60;2.17;;;;;;;;;;4973237;28;20435;-70
2023/07/31 14:25:41;;;;;;;3.17;2.10;;;;;;;;;;4973037;28;20396;-70
2023/07/31 14:28:06;;;;;;;5.55;2.20;;;;;;;;;;4973206;28;20385;-67
2023/07/31 14:30:32;;;;;;;5.07;2.83;;;;;;;;;;4973050;28;20062;-68
2023/07/31 14:32:57;;;;;;;7.90;2.50;;;;;;;;;;4972881;28;20037;-69
2023/07/31 14:35:23;;;;;;;6.20;2.72;;;;;;;;;;4973215;28;20027;-67
2023/07/31 14:37:48;;;;;;;4.38;2.58;;;;;;;;;;4976025;28;20033;-64
2023/07/31 14:40:13;;;;;;;6.35;2.55;;;;;;;;;;4976133;28;20027;-66